createdAt,value
2022-10-28T00:01:17.354Z,18.30
2022-10-28T00:03:51.067Z,18.30
2022-10-28T00:06:24.973Z,18.20
2022-10-28T00:08:53.129Z,18.10
2022-10-28T00:11:26.338Z,18.10
2022-10-28T00:13:55.370Z,18.00
2022-10-28T00:16:27.552Z,17.90
2022-10-28T00:18:55.539Z,17.90
2022-10-28T00:21:29.172Z,17.80
2022-10-28T00:23:57.464Z,17.70
2022-10-28T00:26:28.041Z,17.70
2022-10-28T00:29:01.073Z,17.60
2022-10-28T00:31:30.248Z,17.50
2022-10-28T00:33:59.937Z,17.50
2022-10-28T00:36:31.929Z,17.50
2022-10-28T00:39:00.908Z,17.40
2022-10-28T00:41:31.884Z,17.40
2022-10-28T00:44:02.251Z,17.40
2022-10-28T00:46:46.136Z,17.40
2022-10-28T00:49:26.740Z,17.40
2022-10-28T00:52:02.837Z,17.40
2022-10-28T00:54:31.569Z,17.40
2022-10-28T00:57:01.613Z,17.40
2022-10-28T00:59:34.288Z,17.40
2022-10-28T01:02:03.073Z,17.40
2022-10-28T01:04:31.049Z,17.40
2022-10-28T01:07:00.446Z,17.40
2022-10-28T01:09:27.850Z,17.40
2022-10-28T01:12:13.234Z,17.40
2022-10-28T01:15:08.590Z,17.40
2022-10-28T01:18:00.078Z,17.30
2022-10-28T01:21:09.215Z,17.40
2022-10-28T01:24:10.191Z,17.30
2022-10-28T01:26:46.260Z,17.30
2022-10-28T01:29:38.420Z,17.40
2022-10-28T01:32:05.978Z,17.40
2022-10-28T01:35:06.855Z,17.40
2022-10-28T01:37:40.985Z,17.40
2022-10-28T01:40:34.305Z,17.40
2022-10-28T01:43:13.065Z,17.30
2022-10-28T01:46:01.466Z,17.30
2022-10-28T01:48:40.592Z,17.30
2022-10-28T01:51:19.202Z,17.30
2022-10-28T01:53:50.816Z,17.20
2022-10-28T01:56:30.753Z,17.20
2022-10-28T01:59:01.494Z,17.20
2022-10-28T02:01:31.287Z,17.10
2022-10-28T02:03:59.338Z,17.10
2022-10-28T02:06:31.143Z,17.10
2022-10-28T02:09:16.999Z,17.00
2022-10-28T02:12:21.257Z,17.00
2022-10-28T02:14:56.070Z,17.00
2022-10-28T02:17:44.957Z,17.00
2022-10-28T02:20:27.332Z,16.90
2022-10-28T02:23:21.608Z,16.90
2022-10-28T02:26:01.662Z,16.80
2022-10-28T02:28:56.107Z,16.80
2022-10-28T02:31:28.690Z,16.80
2022-10-28T02:33:59.523Z,16.70
2022-10-28T02:36:31.118Z,16.70
2022-10-28T02:39:01.135Z,16.70
2022-10-28T02:41:45.239Z,16.60
2022-10-28T02:44:20.798Z,16.60
2022-10-28T02:46:50.325Z,16.50
2022-10-28T02:49:18.015Z,16.50
2022-10-28T02:51:52.676Z,16.50
2022-10-28T02:54:35.148Z,16.50
2022-10-28T02:57:09.935Z,16.50
2022-10-28T02:59:37.361Z,16.50
2022-10-28T03:02:05.746Z,16.50
2022-10-28T03:04:33.192Z,16.50
2022-10-28T03:07:00.660Z,16.60
2022-10-28T03:09:28.060Z,16.60
2022-10-28T03:11:55.452Z,16.60
2022-10-28T03:14:23.017Z,16.60
2022-10-28T03:16:50.463Z,16.60
2022-10-28T03:19:17.864Z,16.60
2022-10-28T03:21:45.336Z,16.70
2022-10-28T03:24:12.823Z,16.70
2022-10-28T03:26:40.378Z,16.70
2022-10-28T03:29:07.986Z,16.70
2022-10-28T03:31:35.878Z,16.70
2022-10-28T03:34:03.374Z,16.70
2022-10-28T03:36:30.908Z,16.70
2022-10-28T03:38:58.326Z,16.70
2022-10-28T03:41:25.860Z,16.70
2022-10-28T03:43:53.291Z,16.70
2022-10-28T03:46:20.859Z,16.70
2022-10-28T03:48:48.341Z,16.70
2022-10-28T03:51:15.809Z,16.70
2022-10-28T03:53:43.327Z,16.60
2022-10-28T03:56:12.358Z,16.60
2022-10-28T03:58:41.222Z,16.60
2022-10-28T04:01:09.189Z,16.60
2022-10-28T04:03:36.836Z,16.60
2022-10-28T04:06:04.523Z,16.60
2022-10-28T04:08:32.167Z,16.60
2022-10-28T04:10:59.763Z,16.60
2022-10-28T04:13:27.293Z,16.60
2022-10-28T04:15:54.766Z,16.60
2022-10-28T04:18:22.246Z,16.60
2022-10-28T04:20:49.698Z,16.60
2022-10-28T04:23:20.852Z,16.60
2022-10-28T04:25:53.414Z,16.60
2022-10-28T04:28:21.264Z,16.60
2022-10-28T04:30:48.770Z,16.70
2022-10-28T04:33:16.639Z,16.70
2022-10-28T04:35:45.115Z,16.70
2022-10-28T04:38:14.489Z,16.70
2022-10-28T04:40:42.181Z,16.70
2022-10-28T04:43:11.908Z,16.80
2022-10-28T04:45:39.843Z,16.80
2022-10-28T04:48:09.048Z,16.80
2022-10-28T04:50:36.610Z,16.80
2022-10-28T04:53:11.033Z,16.80
2022-10-28T04:55:38.964Z,16.80
2022-10-28T04:58:06.602Z,16.80
2022-10-28T05:00:34.138Z,16.80
2022-10-28T05:03:03.229Z,16.80
2022-10-28T05:05:30.810Z,16.80
2022-10-28T05:07:58.540Z,16.70
2022-10-28T05:10:26.431Z,16.70
2022-10-28T05:12:54.081Z,16.70
2022-10-28T05:15:21.925Z,16.70
2022-10-28T05:17:49.609Z,16.60
2022-10-28T05:20:18.054Z,16.60
2022-10-28T05:22:55.336Z,16.60
2022-10-28T05:25:23.957Z,16.60
2022-10-28T05:27:51.668Z,16.50
2022-10-28T05:30:20.234Z,16.50
2022-10-28T05:32:49.311Z,16.50
2022-10-28T05:35:19.117Z,16.40
2022-10-28T05:37:46.630Z,16.40
2022-10-28T05:40:14.276Z,16.40
2022-10-28T05:42:42.824Z,16.30
2022-10-28T05:45:11.291Z,16.30
2022-10-28T05:47:48.729Z,16.30
2022-10-28T05:50:18.154Z,16.20
2022-10-28T05:52:53.936Z,16.20
2022-10-28T05:55:24.327Z,16.20
2022-10-28T05:57:53.344Z,16.20
2022-10-28T06:00:24.032Z,16.10
2022-10-28T06:02:52.073Z,16.10
2022-10-28T06:05:20.063Z,16.10
2022-10-28T06:07:47.559Z,16.10
2022-10-28T06:10:15.187Z,16.00
2022-10-28T06:12:41.236Z,16.00
2022-10-28T06:15:09.275Z,16.00
2022-10-28T06:17:36.891Z,16.00
2022-10-28T06:20:05.263Z,16.00
2022-10-28T06:22:32.874Z,16.00
2022-10-28T06:25:00.422Z,16.00
2022-10-28T06:27:27.879Z,16.00
2022-10-28T06:29:55.577Z,16.00
2022-10-28T06:32:23.020Z,16.00
2022-10-28T06:34:50.511Z,16.00
2022-10-28T06:37:17.973Z,16.00
2022-10-28T06:39:49.994Z,16.00
2022-10-28T06:42:18.109Z,16.00
2022-10-28T06:44:45.819Z,16.10
2022-10-28T06:47:14.791Z,16.10
2022-10-28T06:49:42.188Z,16.10
2022-10-28T06:52:09.612Z,16.20
2022-10-28T06:54:37.134Z,16.20
2022-10-28T06:57:05.371Z,16.30
2022-10-28T06:59:32.799Z,16.30
2022-10-28T07:02:00.404Z,16.40
2022-10-28T07:04:28.102Z,16.40
2022-10-28T07:06:56.626Z,16.50
2022-10-28T07:09:24.170Z,16.50
2022-10-28T07:11:54.973Z,16.50
2022-10-28T07:14:22.900Z,16.60
2022-10-28T07:16:50.652Z,16.60
2022-10-28T07:19:22.495Z,16.60
2022-10-28T07:21:50.214Z,16.70
2022-10-28T07:24:17.839Z,16.70
2022-10-28T07:26:47.455Z,16.70
2022-10-28T07:29:15.086Z,16.80
2022-10-28T07:31:44.406Z,16.80
2022-10-28T07:34:11.888Z,16.90
2022-10-28T07:36:39.625Z,16.90
2022-10-28T07:39:07.159Z,17.00
2022-10-28T07:41:34.618Z,17.00
2022-10-28T07:44:02.113Z,17.10
2022-10-28T07:46:29.644Z,17.10
2022-10-28T07:48:57.184Z,17.20
2022-10-28T07:51:34.686Z,17.30
2022-10-28T07:54:02.181Z,17.40
2022-10-28T07:56:29.701Z,17.40
2022-10-28T07:58:57.147Z,17.50
2022-10-28T08:01:24.715Z,17.60
2022-10-28T08:03:52.412Z,17.60
2022-10-28T08:06:21.228Z,17.70
2022-10-28T08:08:53.573Z,17.80
2022-10-28T08:11:24.768Z,17.80
2022-10-28T08:13:53.381Z,17.90
2022-10-28T08:16:20.941Z,18.00
2022-10-28T08:18:48.402Z,18.10
2022-10-28T08:21:16.084Z,18.10
2022-10-28T08:23:47.136Z,18.20
2022-10-28T08:26:16.547Z,18.30
2022-10-28T08:28:44.358Z,18.40
2022-10-28T08:31:12.697Z,18.50
2022-10-28T08:33:44.586Z,18.50
2022-10-28T08:36:13.940Z,18.60
2022-10-28T08:38:45.671Z,18.70
2022-10-28T08:41:13.558Z,18.70
2022-10-28T08:43:57.521Z,18.90
2022-10-28T08:46:50.947Z,18.90
2022-10-28T08:49:22.010Z,19.00
2022-10-28T08:52:12.049Z,19.10
2022-10-28T08:54:51.616Z,19.20
2022-10-28T08:57:24.230Z,19.30
2022-10-28T08:59:54.224Z,19.30
2022-10-28T09:02:24.694Z,19.40
2022-10-28T09:05:00.487Z,19.50
2022-10-28T09:07:28.110Z,19.60
2022-10-28T09:09:56.097Z,19.60
2022-10-28T09:12:32.058Z,19.60
2022-10-28T09:15:22.673Z,19.70
2022-10-28T09:18:13.387Z,19.80
2022-10-28T09:20:58.248Z,19.80
2022-10-28T09:23:36.743Z,19.90
2022-10-28T09:26:09.927Z,19.90
2022-10-28T09:29:04.545Z,19.90
2022-10-28T09:31:41.324Z,20.00
2022-10-28T09:34:11.868Z,20.00
2022-10-28T09:36:47.724Z,20.10
2022-10-28T09:39:27.725Z,20.10
2022-10-28T09:42:01.091Z,20.10
2022-10-28T09:44:45.915Z,20.20
2022-10-28T09:47:21.011Z,20.20
2022-10-28T09:49:51.928Z,20.30
2022-10-28T09:52:28.762Z,20.30
2022-10-28T09:54:58.801Z,20.30
2022-10-28T09:57:32.053Z,20.30
2022-10-28T10:00:00.431Z,20.40
2022-10-28T10:02:29.756Z,20.40
2022-10-28T10:04:58.859Z,20.40
2022-10-28T10:07:39.026Z,20.40
2022-10-28T10:10:22.488Z,20.40
2022-10-28T10:12:52.849Z,20.50
2022-10-28T10:15:33.601Z,20.50
2022-10-28T10:18:04.881Z,20.50
2022-10-28T10:20:58.904Z,20.60
2022-10-28T10:23:41.368Z,20.60
2022-10-28T10:26:14.591Z,20.60
2022-10-28T10:28:49.741Z,20.70
2022-10-28T10:31:26.586Z,20.70
2022-10-28T10:33:56.559Z,20.70
2022-10-28T10:36:29.105Z,20.80
2022-10-28T10:38:58.590Z,20.80
2022-10-28T10:41:41.019Z,20.80
2022-10-28T10:44:25.068Z,20.80
2022-10-28T10:47:13.665Z,20.80
2022-10-28T10:49:41.077Z,20.90
2022-10-28T10:52:21.139Z,20.90
2022-10-28T10:55:24.074Z,21.00
2022-10-28T10:57:51.714Z,21.00
2022-10-28T11:00:23.262Z,21.00
2022-10-28T11:02:55.041Z,21.10
2022-10-28T11:05:29.033Z,21.10
2022-10-28T11:08:05.372Z,21.20
2022-10-28T11:10:34.852Z,21.20
2022-10-28T11:13:06.425Z,21.20
2022-10-28T11:15:34.074Z,21.20
2022-10-28T11:18:09.513Z,21.30
2022-10-28T11:21:11.277Z,21.30
2022-10-28T11:23:41.589Z,21.30
2022-10-28T11:26:13.492Z,21.40
2022-10-28T11:28:43.739Z,21.40
2022-10-28T11:31:48.693Z,21.40
2022-10-28T11:34:46.548Z,21.40
2022-10-28T11:37:38.235Z,21.50
2022-10-28T11:40:31.595Z,21.60
2022-10-28T11:43:17.602Z,21.60
2022-10-28T11:46:00.814Z,21.70
2022-10-28T11:49:04.889Z,21.80
2022-10-28T11:52:02.659Z,21.80
2022-10-28T11:54:43.391Z,22.00
2022-10-28T11:57:34.240Z,22.00
2022-10-28T12:00:25.567Z,22.10
2022-10-28T12:03:17.480Z,22.10
2022-10-28T12:06:03.784Z,22.10
2022-10-28T12:09:16.221Z,22.20
2022-10-28T12:11:52.347Z,22.30
2022-10-28T12:14:31.629Z,22.30
2022-10-28T12:17:17.330Z,22.40
2022-10-28T12:20:05.673Z,22.40
2022-10-28T12:22:47.865Z,22.50
2022-10-28T12:25:19.556Z,22.50
2022-10-28T12:27:50.722Z,22.60
2022-10-28T12:30:25.049Z,22.60
2022-10-28T12:33:15.095Z,22.60
2022-10-28T12:35:53.383Z,22.70
2022-10-28T12:38:37.060Z,22.70
2022-10-28T12:41:28.445Z,22.70
2022-10-28T12:44:22.091Z,22.70
2022-10-28T12:46:52.698Z,22.70
2022-10-28T12:49:46.073Z,22.70
2022-10-28T12:52:39.229Z,22.70
2022-10-28T12:55:32.223Z,22.70
2022-10-28T12:58:30.095Z,22.70
2022-10-28T13:01:12.053Z,22.70
2022-10-28T13:03:40.528Z,22.70
2022-10-28T13:06:29.716Z,22.70
2022-10-28T13:09:26.194Z,22.70
2022-10-28T13:12:05.681Z,22.70
2022-10-28T13:14:36.169Z,22.70
2022-10-28T13:17:06.418Z,22.70
2022-10-28T13:19:58.921Z,22.70
2022-10-28T13:22:54.505Z,22.80
2022-10-28T13:25:49.803Z,22.80
2022-10-28T13:28:21.796Z,22.80
2022-10-28T13:31:09.087Z,22.90
2022-10-28T13:33:46.439Z,22.90
2022-10-28T13:36:25.377Z,22.90
2022-10-28T13:38:56.462Z,22.90
2022-10-28T13:41:43.389Z,23.00
2022-10-28T13:44:24.207Z,22.90
2022-10-28T13:47:16.529Z,23.00
2022-10-28T13:50:11.085Z,23.00
2022-10-28T13:52:46.824Z,23.00
2022-10-28T13:55:14.644Z,22.90
2022-10-28T13:57:48.541Z,22.90
2022-10-28T14:00:19.213Z,22.90
2022-10-28T14:03:08.737Z,22.90
2022-10-28T14:05:39.545Z,22.90
2022-10-28T14:08:18.525Z,22.90
2022-10-28T14:11:03.206Z,22.80
2022-10-28T14:13:34.695Z,22.80
2022-10-28T14:16:26.704Z,22.80
2022-10-28T14:19:11.607Z,22.70
2022-10-28T14:21:57.644Z,22.70
2022-10-28T14:24:37.934Z,22.70
2022-10-28T14:27:15.551Z,22.60
2022-10-28T14:29:58.470Z,22.60
2022-10-28T14:32:31.835Z,22.60
2022-10-28T14:35:51.992Z,22.50
2022-10-28T14:38:28.303Z,22.50
2022-10-28T14:41:13.995Z,22.50
2022-10-28T14:44:23.361Z,22.40
2022-10-28T14:47:08.835Z,22.40
2022-10-28T14:49:38.395Z,22.40
2022-10-28T14:52:17.117Z,22.40
2022-10-28T14:54:51.849Z,22.40
2022-10-28T14:57:23.036Z,22.30
2022-10-28T14:59:52.033Z,22.30
2022-10-28T15:02:22.693Z,22.30
2022-10-28T15:05:01.899Z,22.30
2022-10-28T15:07:32.901Z,22.30
2022-10-28T15:10:18.794Z,22.20
2022-10-28T15:12:51.475Z,22.20
2022-10-28T15:15:25.422Z,22.20
2022-10-28T15:17:53.267Z,22.20
2022-10-28T15:20:26.153Z,22.20
2022-10-28T15:23:10.463Z,22.10
2022-10-28T15:25:38.128Z,22.10
2022-10-28T15:28:05.653Z,22.00
2022-10-28T15:30:35.097Z,22.00
2022-10-28T15:33:20.322Z,22.00
2022-10-28T15:35:48.730Z,22.00
2022-10-28T15:38:46.187Z,21.90
2022-10-28T15:41:44.037Z,21.90
2022-10-28T15:44:39.154Z,21.80
2022-10-28T15:47:33.306Z,21.80
2022-10-28T15:50:02.783Z,21.70
2022-10-28T15:52:35.715Z,21.70
2022-10-28T15:55:35.967Z,21.70
2022-10-28T15:58:19.284Z,21.70
2022-10-28T16:00:58.057Z,21.60
2022-10-28T16:03:46.443Z,21.50
2022-10-28T16:06:25.565Z,21.50
2022-10-28T16:09:24.058Z,21.50
2022-10-28T16:11:57.667Z,21.40
2022-10-28T16:14:44.948Z,21.40
2022-10-28T16:17:15.884Z,21.30
2022-10-28T16:19:56.413Z,21.30
2022-10-28T16:22:25.873Z,21.30
2022-10-28T16:24:54.852Z,21.20
2022-10-28T16:27:24.179Z,21.20
2022-10-28T16:29:51.830Z,21.20
2022-10-28T16:32:26.026Z,21.20
2022-10-28T16:34:53.596Z,21.10
2022-10-28T16:37:24.788Z,21.10
2022-10-28T16:39:52.577Z,21.00
2022-10-28T16:42:21.637Z,21.00
2022-10-28T16:44:50.156Z,21.00
2022-10-28T16:47:20.769Z,20.90
2022-10-28T16:49:54.425Z,20.90
2022-10-28T16:52:30.334Z,20.90
2022-10-28T16:54:58.971Z,20.80
2022-10-28T16:57:29.378Z,20.90
2022-10-28T16:59:57.286Z,20.80
2022-10-28T17:02:27.720Z,20.80
2022-10-28T17:04:55.572Z,20.80
2022-10-28T17:07:23.504Z,20.80
2022-10-28T17:09:52.290Z,20.70
2022-10-28T17:12:22.939Z,20.70
2022-10-28T17:14:52.024Z,20.70
2022-10-28T17:17:19.953Z,20.70
2022-10-28T17:19:47.773Z,20.60
2022-10-28T17:22:15.670Z,20.60
2022-10-28T17:24:43.192Z,20.60
2022-10-28T17:27:11.337Z,20.50
2022-10-28T17:29:39.187Z,20.50
2022-10-28T17:32:11.368Z,20.50
2022-10-28T17:34:39.877Z,20.50
2022-10-28T17:37:08.090Z,20.50
2022-10-28T17:39:35.781Z,20.40
2022-10-28T17:42:05.004Z,20.40
2022-10-28T17:44:33.939Z,20.30
2022-10-28T17:47:01.859Z,20.30
2022-10-28T17:49:30.399Z,20.30
2022-10-28T17:51:58.538Z,20.30
2022-10-28T17:54:27.955Z,20.30
2022-10-28T17:56:55.728Z,20.30
2022-10-28T17:59:27.360Z,20.20
2022-10-28T18:01:55.116Z,20.20
2022-10-28T18:04:26.706Z,20.20
2022-10-28T18:06:56.232Z,20.20
2022-10-28T18:09:25.100Z,20.20
2022-10-28T18:11:57.959Z,20.10
2022-10-28T18:14:25.554Z,20.10
2022-10-28T18:16:53.096Z,20.10
2022-10-28T18:19:22.833Z,20.10
2022-10-28T18:21:55.025Z,20.00
2022-10-28T18:24:26.024Z,20.00
2022-10-28T18:26:56.122Z,20.00
2022-10-28T18:29:23.660Z,20.00
2022-10-28T18:31:51.398Z,20.00
2022-10-28T18:34:21.525Z,20.00
2022-10-28T18:36:52.395Z,20.00
2022-10-28T18:39:19.958Z,19.90
2022-10-28T18:41:48.392Z,20.00
2022-10-28T18:44:20.502Z,20.00
2022-10-28T18:46:48.315Z,20.00
2022-10-28T18:49:15.983Z,20.00
2022-10-28T18:51:43.990Z,19.90
2022-10-28T18:54:11.661Z,19.90
2022-10-28T18:56:40.865Z,19.90
2022-10-28T18:59:10.813Z,19.90
2022-10-28T19:01:38.453Z,20.00
2022-10-28T19:04:06.192Z,19.90
2022-10-28T19:06:34.465Z,19.90
2022-10-28T19:09:04.604Z,20.00
2022-10-28T19:11:34.037Z,20.00
2022-10-28T19:14:05.425Z,20.00
2022-10-28T19:16:34.580Z,20.00
2022-10-28T19:19:04.700Z,20.00
2022-10-28T19:21:32.411Z,20.00
2022-10-28T19:24:00.355Z,20.00
2022-10-28T19:26:28.309Z,20.00
2022-10-28T19:28:56.887Z,20.00
2022-10-28T19:31:26.811Z,19.90
2022-10-28T19:33:56.978Z,19.90
2022-10-28T19:36:28.141Z,19.90
2022-10-28T19:38:57.580Z,19.90
2022-10-28T19:41:30.182Z,19.90
2022-10-28T19:44:03.262Z,19.90
2022-10-28T19:46:33.851Z,19.90
2022-10-28T19:49:11.302Z,19.90
2022-10-28T19:51:42.320Z,19.80
2022-10-28T19:54:14.104Z,19.80
2022-10-28T19:56:45.626Z,19.90
2022-10-28T19:59:13.402Z,19.80
2022-10-28T20:01:41.885Z,19.80
2022-10-28T20:04:10.406Z,19.80
2022-10-28T20:06:40.010Z,19.70
2022-10-28T20:09:08.034Z,19.70
2022-10-28T20:11:37.911Z,19.70
2022-10-28T20:14:12.149Z,19.70
2022-10-28T20:16:43.181Z,19.70
2022-10-28T20:19:11.005Z,19.70
2022-10-28T20:21:39.201Z,19.70
2022-10-28T20:24:08.494Z,19.70
2022-10-28T20:26:39.784Z,19.70
2022-10-28T20:29:08.904Z,19.70
2022-10-28T20:31:36.637Z,19.70
2022-10-28T20:34:05.834Z,19.70
2022-10-28T20:36:34.808Z,19.70
2022-10-28T20:39:11.842Z,19.70
2022-10-28T20:41:41.308Z,19.60
2022-10-28T20:44:09.521Z,19.60
2022-10-28T20:46:37.419Z,19.60
2022-10-28T20:49:05.900Z,19.60
2022-10-28T20:51:33.814Z,19.60
2022-10-28T20:54:02.272Z,19.50
2022-10-28T20:56:32.274Z,19.50
2022-10-28T20:58:59.924Z,19.50
2022-10-28T21:01:30.126Z,19.50
2022-10-28T21:04:01.682Z,19.50
2022-10-28T21:06:30.309Z,19.40
2022-10-28T21:08:58.584Z,19.40
2022-10-28T21:11:27.604Z,19.40
2022-10-28T21:13:59.995Z,19.40
2022-10-28T21:16:27.957Z,19.30
2022-10-28T21:18:55.655Z,19.30
2022-10-28T21:21:24.649Z,19.30
2022-10-28T21:23:52.372Z,19.20
2022-10-28T21:26:20.126Z,19.20
2022-10-28T21:28:52.333Z,19.20
2022-10-28T21:31:20.192Z,19.10
2022-10-28T21:36:21.718Z,19.10
2022-10-28T21:38:52.574Z,19.00
2022-10-28T21:41:21.264Z,19.00
2022-10-28T21:43:51.054Z,19.00
2022-10-28T21:46:19.938Z,19.00
2022-10-28T21:48:47.787Z,18.90
2022-10-28T21:51:17.303Z,18.90
2022-10-28T21:53:46.110Z,18.90
2022-10-28T21:56:17.613Z,18.90
2022-10-28T21:58:51.105Z,18.80
2022-10-28T22:01:21.403Z,18.80
2022-10-28T22:03:50.435Z,18.80
2022-10-28T22:06:18.188Z,18.80
2022-10-28T22:08:47.079Z,18.70
2022-10-28T22:11:19.758Z,18.70
2022-10-28T22:13:51.962Z,18.70
2022-10-28T22:16:19.514Z,18.70
2022-10-28T22:18:47.378Z,18.60
2022-10-28T22:21:21.304Z,18.60
2022-10-28T22:23:49.802Z,18.60
2022-10-28T22:26:20.958Z,18.60
2022-10-28T22:28:48.782Z,18.50
2022-10-28T22:31:19.168Z,18.50
2022-10-28T22:36:24.984Z,18.40
2022-10-28T22:38:52.809Z,18.40
2022-10-28T22:41:30.954Z,18.30
2022-10-28T22:44:00.279Z,18.30
2022-10-28T22:46:31.204Z,18.30
2022-10-28T22:48:58.991Z,18.20
2022-10-28T22:51:26.554Z,18.20
2022-10-28T22:53:54.050Z,18.20
2022-10-28T22:56:24.876Z,18.20
2022-10-28T22:58:57.701Z,18.20
2022-10-28T23:01:26.521Z,18.10
2022-10-28T23:03:54.899Z,18.10
2022-10-28T23:06:25.064Z,18.00
2022-10-28T23:08:52.654Z,18.00
2022-10-28T23:11:21.952Z,18.00
2022-10-28T23:13:53.594Z,17.90
2022-10-28T23:16:21.917Z,17.90
2022-10-28T23:18:49.754Z,17.90
2022-10-28T23:21:20.073Z,17.90
2022-10-28T23:23:51.339Z,17.80
2022-10-28T23:26:22.164Z,17.80
2022-10-28T23:28:54.490Z,17.80
2022-10-28T23:31:22.792Z,17.70
2022-10-28T23:33:51.106Z,17.70
2022-10-28T23:36:18.699Z,17.70
2022-10-28T23:38:46.109Z,17.70
2022-10-28T23:41:18.896Z,17.60
2022-10-28T23:43:49.710Z,17.60
2022-10-28T23:46:18.225Z,17.60
2022-10-28T23:48:45.732Z,17.60
2022-10-28T23:51:13.292Z,17.50
2022-10-28T23:53:40.629Z,17.50
2022-10-28T23:56:09.029Z,17.50
2022-10-28T23:58:36.479Z,17.40
